Maunaloa, HI

5:25 AM HST on February 13, 2016 (GMT -1000)
Molokai | | Change Station
CLOSE
Current Station
Airport
Location: Molokai,
Elevation: 449 ft
Nearby Weather Stations

Elev 449 ft 21.15 °N, 157.10 °W | Updated 31 minutes ago

Overcast
Overcast
72 °F
Feels Like 72 °F
N
5
Wind Variable Wind from North

Today
High -- | Low -- °F
--% Chance of Precip.
Yesterday
High -- | Low -- °F
Precip. -- in
Pressure 30.06 in
Visibility 10.0 miles
Clouds Overcast 5000 ft
Dew Point 64 °F
Humidity 76%
Rainfall 0.00 in
Snow Depth Not available.
7:00 AM 6:25 PM
Waxing Crescent, 31% visible
METAR PHMK 131454Z AUTO 36004KT 10SM OVC050 22/18 A3005 RMK AO2 SLP177 T02220178 55003 TSNO
Pressure 30.06 in
Visibility 10.0 miles
Clouds Overcast 5000 ft
Dew Point 64 °F
Humidity 76%
Rainfall 0.00 in
Snow Depth Not available.
7:00 AM 6:25 PM
Waxing Crescent, 31% visible
METAR PHMK 131454Z AUTO 36004KT 10SM OVC050 22/18 A3005 RMK AO2 SLP177 T02220178 55003 TSNO

10-Day Weather Forecast

Almanac

Astronomy

Feb. 13, 2016 Rise Set
Actual Time
Civil Twilight
Nautical Twilight
Astronomical Twilight
Moon
Length of Visible Light
Length of Day
Tomorrow will be .
, % of the Moon is Illuminated

Today's Extremes

State Highs State Lows

Community

WunderPhotos

Upload Photos

1,892,580 photos uploaded!

WunderBlog® & News

Nearby

Air Quality

  Air Quality AQ Index Pollutant
Not available.

Snow Depth

Station Depth Elevation

Earthquake Activity

City Distance Mag. Time & Date
Minimum magnitude displayed is 2.5.

Coastal Water Temperatures

Place Temperature

Stations

Nearby Weather Stations

Station Location Temp. Windchill Dew Point Humidity Wind Precip. Elev Updated Type
                   

Watches & Warnings

There are currently no watches in effect.